Aviation Digital Data Service (ADDS)

Output produced by METARs form (1129 UTC 18 June 2019)
found at http://www.aviationweather.gov/metar/data/
 
Forecast for: EDDM (MUNICH-FLUGHAFEN, DE)
Text: TAF EDDM 181100Z 1812/1918 VRB03KT CAVOK
Forecast period: 1200 UTC 18 June 2019 to 0700 UTC 19 June 2019
Forecast type: FROM: standard forecast or significant change
Winds: variable direction winds at 3 MPH (3 knots; 1.5 m/s)
Visibility: 6 or more miles 10+ km)
Ceiling: unknown
Clouds: missing
Weather: NSW  (no significant weather)
Text: BECMG 1907/1909 23005KT
Forecast period: 0700 to 1800 UTC 19 June 2019
Forecast type: BECOMING: Conditions expected to become as follows by 0900 UTC 19 June 2019
Winds: from the SW (230 degrees) at 6 MPH (5 knots; 2.6 m/s)
Visibility: 6 or more miles 10+ km)
Ceiling: unknown
Clouds: missing
Weather: NSW  (no significant weather)